Time;durP1;ratioP1;P1;durP2;ratioP2;P2;SDS_P1;SDS_P2;PMS_P1;PMS_P2;Temp;Humidity;BMP_temperature;BMP_pressure;BME280_temperature;BME280_humidity;BME280_pressure;Samples;Min_cycle;Max_cycle;Signal;HPM_P1;HPM_P2
2022/06/14 00:01:05;;;;;;;12.43;7.10;;;;;;;25.76;52.02;101100.41;4991045;28;20047;-80
2022/06/14 00:03:36;;;;;;;12.48;6.72;;;;;;;25.77;52.50;101106.69;4990692;28;20070;-79
2022/06/14 00:06:06;;;;;;;7.05;6.15;;;;;;;25.75;52.27;101106.94;4990951;28;20050;-77
2022/06/14 00:08:36;;;;;;;6.82;6.15;;;;;;;25.84;51.92;101106.63;4990969;28;20054;-80
2022/06/14 00:11:13;;;;;;;7.07;6.35;;;;;;;25.92;51.70;101095.47;4972848;28;20050;-79
2022/06/14 00:13:40;;;;;;;7.40;6.70;;;;;;;25.89;51.41;101114.97;4987382;28;20640;-79
2022/06/14 00:16:08;;;;;;;9.73;6.97;;;;;;;25.82;51.48;101104.13;4987622;28;20050;-78
2022/06/14 00:18:36;;;;;;;7.80;6.97;;;;;;;25.83;51.61;101110.38;4972366;28;20123;-79
2022/06/14 00:21:03;;;;;;;7.28;6.15;;;;;;;25.70;51.84;101097.75;4987165;28;20441;-81
2022/06/14 00:23:30;;;;;;;9.95;6.53;;;;;;;25.47;52.03;101073.94;4972730;28;20219;-79
2022/06/14 00:26:02;;;;;;;7.60;6.78;;;;;;;25.64;52.33;101120.41;4986922;28;20493;-77
2022/06/14 00:28:31;;;;;;;10.18;7.78;;;;;;;25.35;53.41;101109.16;4986519;28;20109;-79
2022/06/14 00:31:01;;;;;;;8.82;7.53;;;;;;;24.60;53.92;101019.47;4987197;28;20515;-78
2022/06/14 00:33:28;;;;;;;11.68;7.18;;;;;;;25.34;54.01;101140.09;4973271;28;20061;-81
2022/06/14 00:36:01;;;;;;;10.18;8.68;;;;;;;25.04;54.33;101091.81;4986809;28;20130;-79
2022/06/14 00:38:28;;;;;;;12.43;9.95;;;;;;;25.20;54.73;101142.09;4972333;28;20109;-79
2022/06/14 00:40:59;;;;;;;14.02;10.10;;;;;;;25.06;55.75;101140.50;4986724;28;20047;-80
2022/06/14 00:43:29;;;;;;;13.18;8.50;;;;;;;24.62;55.99;101094.19;4986779;28;20055;-79
2022/06/14 00:46:13;;;;;;;12.07;9.63;;;;;;;24.99;56.19;101137.00;4986216;28;20563;-79
2022/06/14 00:48:45;;;;;;;11.07;9.95;;;;;;;24.90;56.51;101131.84;4986421;28;20042;-79
2022/06/14 00:51:20;;;;;;;12.63;10.20;;;;;;;24.63;56.95;101108.59;4970469;28;20055;-80
2022/06/14 00:54:06;;;;;;;16.25;10.50;;;;;;;24.43;56.98;101070.66;5000983;28;20049;-80
2022/06/14 00:56:56;;;;;;;12.27;10.20;;;;;;;24.76;56.85;101122.09;4990011;28;20400;-79
2022/06/14 00:59:44;;;;;;;10.98;9.68;;;;;;;24.93;56.71;101139.53;4990146;28;20042;-80
2022/06/14 01:02:21;;;;;;;11.70;10.32;;;;;;;24.22;56.85;101041.97;4991539;28;20062;-79
2022/06/14 01:04:48;;;;;;;13.75;9.52;;;;;;;24.65;56.88;101117.34;4990534;28;20539;-79
2022/06/14 01:07:29;;;;;;;10.50;9.57;;;;;;;24.81;56.92;101138.56;4989888;28;20500;-80
2022/06/14 01:10:06;;;;;;;12.68;9.82;;;;;;;24.83;57.07;101141.03;4989964;28;20100;-80
2022/06/14 01:12:40;;;;;;;12.30;10.05;;;;;;;24.35;57.07;101068.22;5006345;28;20078;-79
2022/06/14 01:15:25;;;;;;;11.23;10.13;;;;;;;23.87;57.13;100999.78;4991629;28;20575;-81
2022/06/14 01:18:00;;;;;;;13.75;10.98;;;;;;;24.78;57.00;101143.59;4992102;28;20054;-79
2022/06/14 01:20:28;;;;;;;12.65;11.07;;;;;;;24.35;57.15;101077.19;4989172;28;20120;-79
2022/06/14 01:22:55;;;;;;;16.17;10.88;;;;;;;24.34;57.53;101101.81;4990285;28;20429;-79
2022/06/14 01:25:26;;;;;;;16.27;11.50;;;;;;;24.61;57.73;101163.06;4989563;28;20046;-80
2022/06/14 01:27:54;;;;;;;12.68;11.45;;;;;;;24.58;57.70;101163.53;4989311;28;20062;-80
2022/06/14 01:30:26;;;;;;;14.10;11.93;;;;;;;23.89;57.66;101062.75;4989409;28;20057;-80
2022/06/14 01:33:04;;;;;;;11.88;10.15;;;;;;;24.42;58.04;101164.81;4989464;28;20496;-79
2022/06/14 01:35:36;;;;;;;12.07;10.20;;;;;;;24.48;57.45;101169.41;4989997;28;20088;-79
2022/06/14 01:38:09;;;;;;;10.93;8.18;;;;;;;24.49;56.33;101162.94;4989513;28;20054;-79
2022/06/14 01:40:50;;;;;;;7.32;6.45;;;;;;;24.43;55.27;101171.91;4990900;28;20080;-79
2022/06/14 01:43:44;;;;;;;7.93;6.65;;;;;;;24.41;55.79;101168.56;4989648;28;20062;-79
2022/06/14 01:46:33;;;;;;;8.07;7.38;;;;;;;24.36;56.10;101170.25;4990354;28;20054;-78
2022/06/14 01:52:46;;;;;;;10.00;6.47;;;;;;;23.83;55.81;101098.00;4990418;28;20050;-79
2022/06/14 01:55:15;;;;;;;7.97;6.03;;;;;;;24.34;54.85;101178.59;5004031;28;20132;-79
2022/06/14 01:58:03;;;;;;;9.32;6.97;;;;;;;24.38;54.60;101173.59;5004785;28;20046;-79
2022/06/14 02:00:34;;;;;;;6.57;5.97;;;;;;;24.36;54.33;101181.94;5005265;28;20061;-79
2022/06/14 02:06:34;;;;;;;6.70;6.13;;;;;;;24.25;53.95;101155.50;4986662;28;20082;-79
2022/06/14 02:09:16;;;;;;;6.57;5.95;;;;;;;24.34;54.13;101184.03;5002008;28;20066;-80
2022/06/14 02:11:46;;;;;;;7.60;5.97;;;;;;;24.38;54.12;101187.16;4985305;28;20046;-79
2022/06/14 02:14:24;;;;;;;6.72;6.10;;;;;;;24.42;53.71;101191.94;4985617;28;20054;-79
2022/06/14 02:17:00;;;;;;;8.82;5.80;;;;;;;24.39;54.01;101192.34;5001355;28;20054;-80
2022/06/14 02:19:50;;;;;;;9.30;6.13;;;;;;;24.28;54.60;101190.31;4985547;28;20073;-79
2022/06/14 02:22:22;;;;;;;10.57;6.63;;;;;;;24.22;54.54;101202.00;4987259;28;20112;-78
2022/06/14 02:24:55;;;;;;;8.27;5.55;;;;;;;24.01;54.76;101173.28;4985394;28;20051;-80
2022/06/14 02:28:01;;;;;;;7.55;5.97;;;;;;;23.71;54.95;101130.31;4986799;28;20054;-78
2022/06/14 02:30:38;;;;;;;8.98;5.82;;;;;;;24.07;55.10;101200.38;4986931;28;20053;-80
2022/06/14 02:33:30;;;;;;;6.97;5.80;;;;;;;23.99;55.13;101187.03;5004654;28;20051;-79
2022/06/14 02:36:21;;;;;;;6.53;5.50;;;;;;;23.63;55.21;101127.81;4988459;28;20496;-79
2022/06/14 02:39:20;;;;;;;7.45;5.82;;;;;;;24.07;55.33;101204.97;4988423;28;20536;-79
2022/06/14 02:42:01;;;;;;;7.50;5.68;;;;;;;24.07;55.16;101211.22;4977068;28;20190;-80
2022/06/14 02:44:53;;;;;;;8.73;5.85;;;;;;;24.03;55.41;101215.41;4988746;28;20069;-80
2022/06/14 02:47:31;;;;;;;6.55;5.97;;;;;;;23.99;55.31;101214.16;4989110;28;20629;-80
2022/06/14 02:50:16;;;;;;;6.68;6.07;;;;;;;23.88;55.47;101217.50;5004757;28;20443;-81
2022/06/14 02:52:52;;;;;;;9.43;6.65;;;;;;;23.28;55.57;101119.94;4988500;28;20054;-80
2022/06/14 02:55:39;;;;;;;6.82;5.50;;;;;;;23.87;55.43;101202.28;4988576;28;20051;-80
2022/06/14 02:58:13;;;;;;;6.70;5.78;;;;;;;22.69;55.67;101015.06;4989348;28;20054;-80
2022/06/14 03:00:40;;;;;;;6.50;5.90;;;;;;;23.74;55.82;101191.44;4988227;28;20049;-81
2022/06/14 03:03:22;;;;;;;6.72;5.93;;;;;;;23.39;55.71;101137.41;4988266;28;20197;-79
2022/06/14 03:05:55;;;;;;;6.53;5.85;;;;;;;23.81;55.71;101197.69;4988177;28;20481;-79
2022/06/14 03:08:31;;;;;;;7.20;6.15;;;;;;;23.80;55.69;101207.69;4988127;28;20520;-79
2022/06/14 03:11:10;;;;;;;8.05;6.03;;;;;;;23.74;55.94;101205.84;4991848;28;20393;-79
2022/06/14 03:13:49;;;;;;;6.88;6.20;;;;;;;23.22;55.77;101110.72;4992758;28;20460;-77
2022/06/14 03:16:45;;;;;;;8.55;6.90;;;;;;;24.03;55.76;101242.53;4993362;28;20452;-79
2022/06/14 03:19:19;;;;;;;8.10;6.45;;;;;;;24.10;56.13;101248.78;4980740;28;20046;-80
2022/06/14 03:22:06;;;;;;;10.38;7.13;;;;;;;23.87;55.85;101199.56;4990828;28;20053;-79
2022/06/14 03:24:38;;;;;;;9.98;9.13;;;;;;;23.88;57.21;101229.19;4995672;28;20046;-78
2022/06/14 03:27:24;;;;;;;10.43;8.48;;;;;;;23.83;57.97;101236.28;4997110;28;20047;-80
2022/06/14 03:30:36;;;;;;;14.20;9.43;;;;;;;23.77;58.10;101213.53;5008608;28;20073;-80
2022/06/14 03:33:43;;;;;;;8.75;7.85;;;;;;;23.84;58.12;101238.78;4977876;28;20049;-81
2022/06/14 03:36:10;;;;;;;12.75;11.48;;;;;;;23.69;58.31;101216.44;5012923;28;20050;-78
2022/06/14 03:38:51;;;;;;;17.83;15.95;;;;;;;23.79;60.03;101233.16;4995546;28;20575;-80
2022/06/14 03:41:25;;;;;;;22.40;17.63;;;;;;;23.79;59.94;101233.16;4988304;28;20101;-80
2022/06/14 03:43:55;;;;;;;23.05;17.13;;;;;;;23.10;60.76;101123.22;4989290;28;20046;-80
2022/06/14 03:46:28;;;;;;;20.48;17.27;;;;;;;23.72;61.24;101250.44;4991898;28;20050;-79
2022/06/14 03:49:12;;;;;;;20.02;17.90;;;;;;;23.65;61.34;101248.53;4991060;28;20057;-80
2022/06/14 03:52:01;;;;;;;20.25;16.75;;;;;;;23.55;61.67;101234.56;4988771;28;20092;-79
2022/06/14 03:54:34;;;;;;;23.25;17.15;;;;;;;23.62;62.24;101254.38;4972019;28;20050;-79
2022/06/14 03:57:13;;;;;;;19.48;17.48;;;;;;;23.62;62.44;101257.09;4970886;28;20605;-79
2022/06/14 03:59:52;;;;;;;25.77;17.73;;;;;;;23.66;62.39;101260.22;4968051;28;20583;-80
2022/06/14 04:02:53;;;;;;;22.02;17.75;;;;;;;23.66;62.54;101263.75;4969231;28;20441;-79
2022/06/14 04:05:52;;;;;;;18.65;16.27;;;;;;;23.63;62.76;101264.16;4970201;28;20061;-80
2022/06/14 04:08:35;;;;;;;22.02;15.98;;;;;;;22.80;62.82;101128.97;4961640;28;20050;-79
2022/06/14 04:11:24;;;;;;;16.23;14.55;;;;;;;23.24;62.56;101211.59;4988041;28;20108;-81
2022/06/14 04:14:09;;;;;;;14.80;13.05;;;;;;;23.58;61.77;101276.69;4989510;28;20070;-78
2022/06/14 04:16:53;;;;;;;9.88;8.88;;;;;;;23.63;60.48;101283.13;5004277;28;20046;-80
2022/06/14 04:19:52;;;;;;;8.85;7.78;;;;;;;23.62;58.58;101272.53;4988245;28;20053;-79
2022/06/14 04:22:33;;;;;;;8.52;7.65;;;;;;;23.24;57.98;101203.47;4988354;28;20054;-80
2022/06/14 04:25:42;;;;;;;9.50;7.18;;;;;;;23.72;57.67;101282.97;4988256;28;20085;-80
2022/06/14 04:28:29;;;;;;;8.00;6.07;;;;;;;23.66;57.20;101271.88;4997934;28;20050;-80
2022/06/14 04:31:14;;;;;;;7.55;6.22;;;;;;;23.75;57.22;101288.00;4990841;28;20049;-77
2022/06/14 04:33:53;;;;;;;7.25;6.32;;;;;;;23.76;57.28;101289.66;5008686;28;20057;-80
2022/06/14 04:36:42;;;;;;;10.25;6.00;;;;;;;23.83;57.03;101304.88;5007514;28;20104;-78
2022/06/14 04:39:22;;;;;;;13.50;6.10;;;;;;;23.75;56.64;101274.44;5009018;28;20057;-78
2022/06/14 04:41:56;;;;;;;6.28;5.68;;;;;;;23.87;56.16;101302.59;5008614;28;20056;-78
2022/06/14 04:44:29;;;;;;;7.13;5.22;;;;;;;23.92;55.95;101299.28;5007396;28;20046;-79
2022/06/14 04:47:14;;;;;;;7.10;6.07;;;;;;;23.92;55.76;101297.38;5007053;28;20472;-77
2022/06/14 04:50:10;;;;;;;7.32;5.57;;;;;;;23.97;55.53;101303.00;5008329;28;20092;-79
2022/06/14 04:52:46;;;;;;;7.28;5.72;;;;;;;23.43;55.47;101203.72;5006438;28;20518;-78
2022/06/14 04:55:21;;;;;;;12.80;6.43;;;;;;;24.05;55.19;101307.41;5007430;28;20100;-78
2022/06/14 04:58:17;;;;;;;7.93;5.03;;;;;;;24.14;55.24;101308.03;5007480;28;20491;-80
2022/06/14 05:00:51;;;;;;;15.32;6.03;;;;;;;24.25;55.11;101310.13;5006298;28;20496;-78
2022/06/14 05:03:28;;;;;;;10.23;5.50;;;;;;;24.28;54.54;101299.66;5008515;28;20061;-78
2022/06/14 05:06:00;;;;;;;5.47;4.85;;;;;;;24.33;54.77;101312.59;5006798;28;20073;-81
2022/06/14 05:08:36;;;;;;;14.25;6.18;;;;;;;24.35;55.05;101305.09;5008006;28;20401;-79
2022/06/14 05:11:12;;;;;;;7.43;5.72;;;;;;;24.43;55.34;101304.88;4988966;28;20054;-78
2022/06/14 05:13:48;;;;;;;7.13;5.97;;;;;;;24.63;55.27;101323.84;4977348;28;20465;-79
2022/06/14 05:16:23;;;;;;;9.88;6.45;;;;;;;24.76;55.23;101323.00;4974435;28;20456;-79
2022/06/14 05:18:57;;;;;;;16.10;6.95;;;;;;;24.62;54.25;101289.63;4969747;28;20303;-79
2022/06/14 05:21:34;;;;;;;9.73;6.88;;;;;;;24.94;54.76;101319.59;4967857;28;20051;-78
2022/06/14 05:24:01;;;;;;;7.63;6.95;;;;;;;24.36;54.88;101221.81;4968549;28;20445;-79
2022/06/14 05:26:33;;;;;;;12.13;9.13;;;;;;;25.10;55.82;101323.75;4968348;28;20496;-77
2022/06/14 05:29:22;;;;;;;14.07;11.05;;;;;;;25.20;56.51;101332.28;4966909;28;20524;-78
2022/06/14 05:32:30;;;;;;;12.95;11.55;;;;;;;25.22;56.51;101327.47;4982387;28;20520;-80
2022/06/14 05:35:38;;;;;;;13.32;10.82;;;;;;;25.28;56.63;101332.03;4949001;28;20057;-79
2022/06/14 05:38:32;;;;;;;12.00;10.02;;;;;;;24.86;55.95;101247.38;4965067;28;20393;-81
2022/06/14 05:41:13;;;;;;;11.93;10.20;;;;;;;25.45;56.24;101339.69;4965268;28;20050;-79
2022/06/14 05:43:46;;;;;;;11.00;9.85;;;;;;;25.29;56.19;101308.41;4967922;28;20050;-79
2022/06/14 05:46:32;;;;;;;11.50;10.00;;;;;;;25.51;56.34;101339.66;4965966;28;20050;-78
2022/06/14 05:49:09;;;;;;;18.35;13.63;;;;;;;25.58;57.08;101343.19;4982477;28;20471;-78
2022/06/14 05:51:43;;;;;;;18.52;13.23;;;;;;;25.32;57.14;101305.28;4982361;28;20413;-79
2022/06/14 05:54:21;;;;;;;15.75;14.20;;;;;;;25.33;57.46;101296.88;4983770;28;20115;-79
2022/06/14 05:56:51;;;;;;;14.45;13.13;;;;;;;25.44;57.37;101305.41;5001997;28;20477;-78
2022/06/14 05:59:31;;;;;;;16.20;14.30;;;;;;;25.66;57.79;101333.09;5002103;28;20104;-78
2022/06/14 06:02:05;;;;;;;15.50;13.85;;;;;;;25.71;57.66;101344.97;5003328;28;20108;-78
2022/06/14 06:04:42;;;;;;;15.07;13.48;;;;;;;25.62;58.11;101323.72;5008911;28;20077;-78
2022/06/14 06:07:12;;;;;;;12.10;9.38;;;;;;;25.57;57.76;101321.66;5008975;28;20313;-79
2022/06/14 06:09:49;;;;;;;16.33;14.70;;;;;;;25.75;58.67;101359.81;5016937;28;20077;-79
2022/06/14 06:12:26;;;;;;;18.40;14.23;;;;;;;25.73;58.77;101363.78;5005183;28;20401;-79
2022/06/14 06:15:00;;;;;;;12.40;11.15;;;;;;;25.86;58.03;101365.63;4989418;28;20050;-77
2022/06/14 06:17:47;;;;;;;17.05;14.90;;;;;;;25.61;59.32;101336.47;4988215;28;20492;-80
2022/06/14 06:20:55;;;;;;;11.63;10.45;;;;;;;25.85;57.76;101372.06;4989793;28;20179;-79
2022/06/14 06:23:47;;;;;;;14.70;12.57;;;;;;;25.95;58.05;101375.19;4969824;28;20077;-78
2022/06/14 06:26:17;;;;;;;18.70;14.43;;;;;;;25.80;57.87;101334.66;4988640;28;20062;-78
2022/06/14 06:28:52;;;;;;;17.92;15.00;;;;;;;25.87;58.59;101357.22;4988690;28;20290;-78
2022/06/14 06:31:31;;;;;;;23.65;16.02;;;;;;;25.96;59.40;101371.41;4990472;28;20050;-79
2022/06/14 06:34:02;;;;;;;13.82;12.32;;;;;;;25.65;58.99;101315.94;5005115;28;20060;-79
2022/06/14 06:36:46;;;;;;;20.23;14.50;;;;;;;25.94;59.13;101351.75;5005597;28;20054;-78
2022/06/14 06:39:31;;;;;;;21.85;14.18;;;;;;;26.05;59.58;101385.59;5005224;28;20823;-78
2022/06/14 06:42:18;;;;;;;13.05;11.32;;;;;;;26.14;58.11;101357.03;4986765;28;20440;-78
2022/06/14 06:44:53;;;;;;;11.23;9.93;;;;;;;26.30;57.68;101378.28;5002379;28;20054;-78
2022/06/14 06:47:39;;;;;;;12.70;8.48;;;;;;;26.47;56.95;101389.44;4987174;28;20069;-78
2022/06/14 06:50:29;;;;;;;9.40;7.15;;;;;;;26.57;56.29;101381.63;4987082;28;20563;-79
2022/06/14 06:53:05;;;;;;;20.45;9.20;;;;;;;26.32;57.60;101383.50;4988190;28;20077;-77
2022/06/14 06:56:09;;;;;;;15.45;7.32;;;;;;;26.28;57.56;101390.44;4987340;28;20058;-77
2022/06/14 06:59:02;;;;;;;9.38;7.00;;;;;;;26.48;57.02;101391.09;4987098;28;20054;-78
2022/06/14 07:01:38;;;;;;;10.70;7.43;;;;;;;26.45;56.76;101369.75;4987086;28;20346;-78
2022/06/14 07:05:03;;;;;;;16.98;9.35;;;;;;;26.34;58.27;101375.94;4987107;28;20505;-78
2022/06/14 07:07:31;;;;;;;11.57;7.13;;;;;;;26.58;57.44;101394.19;4988781;28;20058;-80
2022/06/14 07:10:07;;;;;;;16.50;8.35;;;;;;;26.47;58.19;101394.88;4987495;28;20058;-78
2022/06/14 07:13:08;;;;;;;12.30;7.75;;;;;;;26.61;57.73;101401.91;4990444;28;20256;-77
2022/06/14 07:16:09;;;;;;;11.48;7.10;;;;;;;26.62;57.19;101398.13;5006150;28;20058;-77
2022/06/14 07:19:00;;;;;;;12.85;6.75;;;;;;;26.59;56.81;101376.78;4990732;28;20100;-79
2022/06/14 07:21:41;;;;;;;9.35;5.30;;;;;;;26.92;55.48;101393.84;4987122;28;20057;-77
2022/06/14 07:24:20;;;;;;;6.82;5.65;;;;;;;26.73;55.81;101373.94;4988453;28;20046;-78
2022/06/14 07:26:52;;;;;;;8.98;5.78;;;;;;;27.04;55.95;101405.66;4987005;28;20534;-76
2022/06/14 07:29:29;;;;;;;10.88;6.03;;;;;;;26.88;54.64;101363.50;4986779;28;20046;-77
2022/06/14 07:31:58;;;;;;;9.57;4.80;;;;;;;26.90;55.32;101393.25;4986822;28;20058;-76
2022/06/14 07:34:26;;;;;;;10.40;5.57;;;;;;;27.19;55.39;101417.06;4987211;28;20465;-78
2022/06/14 07:37:23;;;;;;;7.88;5.35;;;;;;;27.06;56.33;101396.22;4986954;28;20077;-78
2022/06/14 07:39:59;;;;;;;8.65;4.80;;;;;;;27.11;55.56;101397.41;4990886;28;20374;-78
2022/06/14 07:42:49;;;;;;;6.45;4.55;;;;;;;26.54;55.52;101314.00;4998229;28;20448;-80
2022/06/14 07:45:28;;;;;;;11.10;5.18;;;;;;;26.78;55.32;101346.88;5025297;28;20042;-81
2022/06/14 07:48:09;;;;;;;13.38;5.45;;;;;;;27.33;54.11;101414.16;5001748;28;20566;-77
2022/06/14 07:50:50;;;;;;;14.15;4.88;;;;;;;27.08;54.95;101385.91;4988633;28;20050;-78
2022/06/14 07:53:20;;;;;;;10.65;4.80;;;;;;;27.16;55.29;101403.00;4987077;28;20073;-77
2022/06/14 07:55:58;;;;;;;8.82;5.05;;;;;;;27.22;54.70;101402.97;4987584;28;20058;-80
2022/06/14 07:58:41;;;;;;;6.50;4.60;;;;;;;27.27;54.48;101391.41;4988022;28;20065;-80
2022/06/14 08:01:22;;;;;;;12.93;4.70;;;;;;;27.08;54.60;101383.19;4989634;28;20058;-78
2022/06/14 08:03:52;;;;;;;7.60;4.65;;;;;;;27.12;54.21;101386.28;4990841;28;20461;-78
2022/06/14 08:06:26;;;;;;;8.23;5.05;;;;;;;27.11;53.45;101349.19;4991416;28;20680;-77
2022/06/14 08:09:09;;;;;;;10.40;4.97;;;;;;;27.18;53.96;101396.28;4986464;28;20305;-78
2022/06/14 08:11:51;;;;;;;6.20;4.70;;;;;;;27.36;54.18;101408.28;4986880;28;20068;-77
2022/06/14 08:14:33;;;;;;;9.23;5.32;;;;;;;27.11;54.14;101375.63;4985490;28;20058;-79
2022/06/14 08:17:01;;;;;;;10.00;5.43;;;;;;;27.07;54.59;101375.25;5001253;28;20057;-79
2022/06/14 08:19:42;;;;;;;4.82;4.38;;;;;;;26.97;54.62;101359.44;5000775;28;20050;-79
2022/06/14 08:22:18;;;;;;;7.60;4.40;;;;;;;27.41;53.74;101409.25;4986259;28;20057;-78
2022/06/14 08:24:52;;;;;;;8.68;4.40;;;;;;;27.48;53.02;101385.47;4984800;28;20589;-78
2022/06/14 08:27:36;;;;;;;10.90;4.60;;;;;;;27.38;54.34;101423.34;5001348;28;20050;-77
2022/06/14 08:30:05;;;;;;;11.55;5.57;;;;;;;27.49;54.02;101410.81;4984859;28;20050;-77
2022/06/14 08:32:41;;;;;;;10.10;5.18;;;;;;;27.46;54.53;101412.13;4984615;28;20047;-76
2022/06/14 08:35:38;;;;;;;10.57;5.05;;;;;;;27.65;53.63;101409.38;4984777;28;20073;-77
2022/06/14 08:38:11;;;;;;;16.08;6.00;;;;;;;27.54;54.70;101416.44;4984476;28;20061;-79
2022/06/14 08:40:50;;;;;;;7.57;5.18;;;;;;;27.81;52.77;101405.16;4984633;28;20496;-78
2022/06/14 08:43:24;;;;;;;8.45;5.40;;;;;;;27.81;52.50;101421.53;4984654;28;20493;-79
2022/06/14 08:46:03;;;;;;;6.63;4.50;;;;;;;27.89;52.66;101418.50;4986216;28;20054;-78
2022/06/14 08:48:41;;;;;;;5.25;4.70;;;;;;;27.34;52.48;101359.44;4985027;28;20042;-79
2022/06/14 08:51:31;;;;;;;11.43;5.18;;;;;;;27.69;52.82;101416.00;4986491;28;20054;-80
2022/06/14 08:54:17;;;;;;;9.02;4.47;;;;;;;27.82;52.32;101418.59;4985392;28;20054;-78
2022/06/14 08:56:50;;;;;;;5.15;4.65;;;;;;;27.69;52.86;101413.28;4984676;28;20070;-79
2022/06/14 08:59:23;;;;;;;5.78;4.35;;;;;;;26.26;52.71;101197.41;4984472;28;20046;-77
2022/06/14 09:02:42;;;;;;;8.35;5.10;;;;;;;27.42;53.67;101407.34;4984216;28;20054;-80
2022/06/14 09:05:37;;;;;;;7.63;4.88;;;;;;;27.44;54.36;101422.41;4948692;28;20065;-79
2022/06/14 09:08:31;;;;;;;10.02;5.10;;;;;;;27.81;53.12;101416.06;4985395;28;20455;-77
2022/06/14 09:11:16;;;;;;;10.52;5.10;;;;;;;27.43;52.70;101349.88;4985665;28;20054;-78
2022/06/14 09:14:15;;;;;;;10.05;4.78;;;;;;;27.77;52.39;101412.13;5002171;28;20089;-77
2022/06/14 09:17:06;;;;;;;9.48;5.20;;;;;;;27.73;52.78;101419.13;5005065;28;20051;-79
2022/06/14 09:20:19;;;;;;;11.75;6.03;;;;;;;27.85;52.28;101415.41;4987586;28;20046;-78
2022/06/14 09:23:05;;;;;;;6.10;4.88;;;;;;;27.14;52.41;101329.69;4987803;28;20058;-77
2022/06/14 09:26:20;;;;;;;9.77;4.88;;;;;;;27.67;52.55;101415.41;4985146;28;20145;-77
2022/06/14 09:29:23;;;;;;;7.75;4.75;;;;;;;27.78;52.38;101414.63;4984379;28;20388;-77
2022/06/14 09:32:14;;;;;;;9.63;5.28;;;;;;;27.75;51.91;101412.38;4983932;28;20064;-78
2022/06/14 09:35:12;;;;;;;7.25;4.60;;;;;;;27.61;52.81;101421.81;4984163;28;20054;-78
2022/06/14 09:38:03;;;;;;;8.55;5.05;;;;;;;27.55;52.66;101417.25;4984077;28;20065;-78
2022/06/14 09:40:33;;;;;;;8.73;5.03;;;;;;;27.55;52.45;101414.53;4985533;28;20054;-77
2022/06/14 09:43:22;;;;;;;6.38;4.72;;;;;;;27.74;52.35;101416.16;4988481;28;20050;-78
2022/06/14 09:45:55;;;;;;;9.23;4.65;;;;;;;27.73;51.59;101424.59;4989605;28;20393;-80
2022/06/14 09:48:46;;;;;;;5.43;4.78;;;;;;;27.68;51.75;101423.38;4988339;28;20522;-78
2022/06/14 09:51:28;;;;;;;8.63;4.67;;;;;;;27.80;51.83;101417.97;4988197;28;20117;-78
2022/06/14 09:54:22;;;;;;;5.85;4.75;;;;;;;27.70;51.34;101414.97;4987861;28;20088;-78
2022/06/14 09:57:08;;;;;;;8.40;5.00;;;;;;;27.39;51.50;101364.19;4988485;28;20061;-80
2022/06/14 09:59:39;;;;;;;9.25;4.57;;;;;;;27.80;51.01;101422.59;4988652;28;20534;-79
2022/06/14 10:02:23;;;;;;;10.18;4.82;;;;;;;27.88;51.23;101389.56;4987092;28;20097;-79
2022/06/14 10:05:18;;;;;;;6.97;5.18;;;;;;;28.11;50.56;101416.09;4986437;28;20054;-80
2022/06/14 10:08:07;;;;;;;8.25;4.82;;;;;;;27.86;50.30;101406.16;4994185;28;20380;-75
2022/06/14 10:10:55;;;;;;;5.80;4.45;;;;;;;27.98;50.96;101410.81;4992712;28;20061;-81
2022/06/14 10:13:49;;;;;;;11.23;4.03;;;;;;;27.76;50.30;101384.03;4990237;28;20112;-77
2022/06/14 10:16:39;;;;;;;8.05;4.85;;;;;;;28.06;50.66;101407.75;5004344;28;20105;-80
2022/06/14 10:19:30;;;;;;;7.90;4.22;;;;;;;27.14;49.73;101277.03;4948060;29;20047;-78
2022/06/14 10:22:20;;;;;;;10.95;4.55;;;;;;;28.22;49.33;101406.25;4990234;28;20058;-77
2022/06/14 10:24:59;;;;;;;9.02;4.45;;;;;;;28.61;48.88;101403.94;5003815;28;20492;-79
2022/06/14 10:30:29;;;;;;;7.03;4.57;;;;;;;28.29;49.42;101375.03;4988439;28;20051;-78
2022/06/14 10:33:24;;;;;;;7.97;4.05;;;;;;;28.02;50.09;101354.72;5003088;28;20086;-77
2022/06/14 10:36:13;;;;;;;10.07;4.80;;;;;;;28.37;49.12;101405.78;4986968;28;20058;-79
2022/06/14 10:39:17;;;;;;;8.95;4.65;;;;;;;28.41;49.55;101401.53;4987035;28;20132;-75
2022/06/14 10:41:55;;;;;;;9.52;4.13;;;;;;;28.21;48.52;101393.69;4986742;28;20113;-80
2022/06/14 10:44:52;;;;;;;7.03;4.05;;;;;;;28.60;48.93;101400.41;4987726;28;20816;-79
2022/06/14 10:47:44;;;;;;;6.53;4.18;;;;;;;28.75;47.82;101389.00;4986923;28;20484;-79
2022/06/14 10:50:29;;;;;;;;;;;;;;;28.81;48.35;101398.13;4988091;28;20062;-79
2022/06/14 10:53:28;;;;;;;7.97;4.57;;;;;;;28.81;48.36;101395.38;4987913;28;19930;-76
2022/06/14 10:56:37;;;;;;;7.88;4.55;;;;;;;28.61;48.99;101396.59;4970072;28;20064;-79
2022/06/14 10:59:34;;;;;;;11.13;4.50;;;;;;;28.54;49.24;101404.88;4951981;28;20051;-79
2022/06/14 11:02:32;;;;;;;6.07;4.70;;;;;;;28.22;49.10;101351.66;4986264;28;20488;-79
2022/06/14 11:05:19;;;;;;;8.15;4.10;;;;;;;28.41;49.55;101399.63;4987355;28;20137;-79
2022/06/14 11:08:16;;;;;;;10.88;3.85;;;;;;;28.25;49.62;101379.31;4988012;28;20433;-79
2022/06/14 11:10:55;;;;;;;8.48;4.07;;;;;;;28.48;49.47;101396.84;4988026;28;20047;-78
2022/06/14 11:13:40;;;;;;;7.45;4.38;;;;;;;28.44;49.21;101393.69;4988978;28;20057;-80
2022/06/14 11:16:21;;;;;;;11.25;4.95;;;;;;;28.30;48.35;101404.03;4991769;28;20426;-79
2022/06/14 11:22:19;;;;;;;8.32;4.55;;;;;;;28.72;48.30;101390.28;4991282;28;20178;-79
2022/06/14 11:25:08;;;;;;;8.10;4.00;;;;;;;28.78;48.59;101393.97;4966753;28;20700;-75
2022/06/14 11:27:59;;;;;;;8.82;4.90;;;;;;;28.84;48.27;101401.22;4967180;28;20073;-81
2022/06/14 11:30:53;;;;;;;12.13;4.43;;;;;;;28.67;48.51;101387.44;4983491;28;20051;-78
2022/06/14 11:33:29;;;;;;;11.73;4.10;;;;;;;28.94;48.02;101379.59;4967143;28;20062;-74
2022/06/14 11:36:23;;;;;;;6.72;4.25;;;;;;;28.88;48.18;101390.63;4967920;28;20113;-75
2022/06/14 11:39:20;;;;;;;10.80;4.45;;;;;;;28.67;48.24;101371.06;4967162;28;20050;-81
2022/06/14 11:41:49;;;;;;;6.00;4.13;;;;;;;28.79;48.16;101365.59;4967537;28;20054;-88
2022/06/14 11:44:34;;;;;;;9.15;4.78;;;;;;;28.81;48.27;101393.47;4968243;28;20058;-80
2022/06/14 11:47:21;;;;;;;6.93;4.38;;;;;;;28.75;48.56;101378.88;4967143;28;20073;-79
2022/06/14 11:50:00;;;;;;;9.63;4.68;;;;;;;28.68;48.00;101331.72;4966539;28;20105;-80
2022/06/14 11:52:53;;;;;;;18.75;5.05;;;;;;;28.95;48.06;101383.13;4970129;28;20050;-78
2022/06/14 11:55:31;;;;;;;7.88;4.55;;;;;;;29.31;47.90;101387.50;4985740;28;20050;-79
2022/06/14 11:58:21;;;;;;;8.07;4.32;;;;;;;29.39;47.15;101394.47;4985533;28;20140;-78
2022/06/14 12:01:09;;;;;;;7.05;4.53;;;;;;;29.11;47.33;101374.22;4985408;28;20165;-80
2022/06/14 12:04:07;;;;;;;8.55;4.50;;;;;;;29.35;46.80;101377.72;4985127;28;20540;-80
2022/06/14 12:07:08;;;;;;;6.82;4.10;;;;;;;29.39;47.21;101375.31;4986445;28;20050;-79
2022/06/14 12:10:09;;;;;;;12.32;4.38;;;;;;;29.43;47.36;101378.44;4985305;28;20137;-80
2022/06/14 12:13:04;;;;;;;10.88;4.93;;;;;;;28.39;47.09;101210.63;4980459;28;20295;-80
2022/06/14 12:15:41;;;;;;;14.65;4.68;;;;;;;29.29;47.45;101356.00;4997918;28;20060;-80
2022/06/14 12:18:13;;;;;;;9.30;5.70;;;;;;;29.64;46.78;101364.06;4984350;28;20136;-80
2022/06/14 12:20:49;;;;;;;11.15;5.25;;;;;;;29.08;46.40;101287.25;4985859;28;20054;-80
2022/06/14 12:23:28;;;;;;;11.52;5.43;;;;;;;28.98;46.79;101265.97;4986671;28;20506;-80
2022/06/14 12:29:29;;;;;;;7.78;5.00;;;;;;;29.74;46.79;101356.06;4988478;28;20497;-77
2022/06/14 12:32:14;;;;;;;13.05;5.88;;;;;;;29.98;46.04;101362.25;4984764;28;20288;-79
2022/06/14 12:34:46;;;;;;;11.88;5.20;;;;;;;29.91;46.21;101349.78;4984679;28;20058;-79
2022/06/14 12:37:50;;;;;;;9.02;4.90;;;;;;;29.72;46.57;101322.66;4984921;28;20113;-80
2022/06/14 12:40:30;;;;;;;10.50;5.82;;;;;;;29.87;46.01;101341.22;4984901;28;20058;-78
2022/06/14 12:43:19;;;;;;;13.38;5.30;;;;;;;29.22;46.64;101251.41;4986518;28;20204;-77
2022/06/14 12:46:17;;;;;;;11.10;5.47;;;;;;;29.86;46.26;101345.06;4987374;28;20058;-78